Time;durP1;ratioP1;P1;durP2;ratioP2;P2;SDS_P1;SDS_P2;PMS_P1;PMS_P2;Temp;Humidity;BMP_temperature;BMP_pressure;BME280_temperature;BME280_humidity;BME280_pressure;Samples;Min_cycle;Max_cycle;Signal;HPM_P1;HPM_P2
2021/10/17 00:01:06;;;;;;;14.75;9.30;;;;;;;3.12;54.29;99980.97;5059876;28;20131;-76
2021/10/17 00:03:32;;;;;;;17.95;9.73;;;;;;;3.10;54.73;99974.84;5059896;28;20376;-78
2021/10/17 00:05:58;;;;;;;16.75;9.18;;;;;;;3.03;54.19;99960.16;5026799;28;20043;-76
2021/10/17 00:08:24;;;;;;;17.85;9.63;;;;;;;3.06;54.29;99959.19;5076817;28;20036;-76
2021/10/17 00:10:50;;;;;;;21.00;8.88;;;;;;;3.15;54.20;99972.88;5043171;28;20040;-76
2021/10/17 00:13:16;;;;;;;20.50;8.80;;;;;;;3.22;54.27;99975.28;5043491;28;20392;-77
2021/10/17 00:15:42;;;;;;;16.40;8.38;;;;;;;3.23;54.23;99971.72;5026724;28;20501;-76
2021/10/17 00:18:08;;;;;;;11.77;8.02;;;;;;;3.24;54.25;99962.91;5026786;28;20528;-77
2021/10/17 00:20:34;;;;;;;13.68;8.25;;;;;;;3.20;54.14;99951.59;5043025;28;20036;-77
2021/10/17 00:23:00;;;;;;;15.10;9.25;;;;;;;3.25;54.20;99952.25;5043076;28;20398;-75
2021/10/17 00:25:26;;;;;;;13.43;8.60;;;;;;;3.29;54.11;99958.28;5059510;28;20044;-77
2021/10/17 00:27:52;;;;;;;14.75;7.60;;;;;;;3.36;53.94;99970.31;5042952;28;20044;-76
2021/10/17 00:30:38;;;;;;;12.70;7.35;;;;;;;3.32;53.76;99950.22;5063978;28;20075;-76
2021/10/17 00:33:04;;;;;;;13.88;7.22;;;;;;;3.43;54.04;99968.31;5042879;28;20046;-76
2021/10/17 00:35:31;;;;;;;15.90;7.53;;;;;;;3.44;53.88;99965.59;5042685;28;20044;-76
2021/10/17 00:37:57;;;;;;;14.35;7.13;;;;;;;3.38;54.26;99965.81;5076060;28;20048;-77
2021/10/17 00:40:23;;;;;;;11.40;6.85;;;;;;;3.27;54.00;99957.47;5059418;28;20055;-78
2021/10/17 00:42:49;;;;;;;15.85;6.80;;;;;;;3.33;54.41;99973.09;5042840;28;20143;-77
2021/10/17 00:45:19;;;;;;;17.02;7.57;;;;;;;3.24;54.19;99962.91;5059626;28;20067;-78
2021/10/17 00:47:45;;;;;;;16.33;6.75;;;;;;;3.17;54.74;99965.78;5059238;28;20051;-77
2021/10/17 00:50:12;;;;;;;12.25;7.72;;;;;;;3.07;54.50;99955.63;5042808;28;20040;-76
2021/10/17 00:52:39;;;;;;;19.80;6.78;;;;;;;3.24;54.41;99981.41;5075769;28;20137;-77
2021/10/17 00:55:05;;;;;;;15.32;7.25;;;;;;;3.11;55.22;99963.38;5041610;28;20395;-77
2021/10/17 00:57:32;;;;;;;13.80;7.72;;;;;;;3.17;54.64;99978.13;5058905;28;20044;-77
2021/10/17 00:59:58;;;;;;;16.45;8.50;;;;;;;3.17;54.65;99981.63;5059109;28;20073;-76
2021/10/17 01:02:24;;;;;;;14.60;7.25;;;;;;;3.15;54.69;99972.88;5042399;28;20052;-77
2021/10/17 01:04:50;;;;;;;12.77;7.53;;;;;;;3.20;54.59;99983.28;5058770;28;20043;-77
2021/10/17 01:07:16;;;;;;;12.93;8.30;;;;;;;3.12;54.59;99953.66;5058959;28;20131;-76
2021/10/17 01:09:41;;;;;;;17.77;7.80;;;;;;;3.16;54.29;99961.41;5026139;28;20043;-76
2021/10/17 01:12:12;;;;;;;12.55;7.65;;;;;;;3.23;54.70;99969.94;5043438;28;20043;-77
2021/10/17 01:14:38;;;;;;;10.95;7.18;;;;;;;3.19;54.76;99964.84;5059159;28;20040;-76
2021/10/17 01:17:04;;;;;;;14.85;7.97;;;;;;;3.21;54.38;99973.59;5026034;28;20044;-77
2021/10/17 01:19:31;;;;;;;13.13;7.97;;;;;;;3.07;54.50;99950.34;5059863;28;20495;-76
2021/10/17 01:22:12;;;;;;;16.40;8.18;;;;;;;2.99;55.01;99971.78;5063345;28;20139;-76
2021/10/17 01:24:38;;;;;;;13.85;8.07;;;;;;;2.95;55.04;99967.53;5058731;28;20048;-76
2021/10/17 01:27:04;;;;;;;20.60;9.30;;;;;;;3.00;55.16;99970.84;5058701;28;20087;-77
2021/10/17 01:29:30;;;;;;;17.83;8.40;;;;;;;2.91;55.12;99960.66;5075071;28;20040;-75
2021/10/17 01:31:57;;;;;;;17.30;8.85;;;;;;;2.90;55.15;99953.66;5042046;28;20151;-74
2021/10/17 01:34:24;;;;;;;19.65;9.55;;;;;;;2.90;55.21;99970.38;5058876;28;20050;-75
2021/10/17 01:36:50;;;;;;;20.88;9.55;;;;;;;2.81;55.12;99968.06;5075171;28;20082;-76
2021/10/17 01:39:18;;;;;;;16.67;8.88;;;;;;;2.82;55.28;99976.84;5042376;28;20381;-76
2021/10/17 01:41:45;;;;;;;16.85;8.00;;;;;;;2.79;55.45;99976.97;5059070;28;20047;-76
2021/10/17 01:44:28;;;;;;;15.77;8.40;;;;;;;2.66;55.51;99964.22;5042003;28;20048;-76
2021/10/17 01:46:55;;;;;;;16.83;8.00;;;;;;;2.68;55.61;99974.75;5077242;28;20047;-76
2021/10/17 01:49:24;;;;;;;15.10;8.50;;;;;;;2.59;55.45;99948.66;5074832;28;20044;-77
2021/10/17 01:51:51;;;;;;;13.07;8.02;;;;;;;2.65;55.75;99975.72;5041715;28;20043;-76
2021/10/17 01:54:17;;;;;;;15.40;7.75;;;;;;;2.65;55.74;99975.72;5074850;28;20040;-76
2021/10/17 01:56:44;;;;;;;14.55;7.88;;;;;;;2.56;55.88;99960.22;5041358;28;20051;-77
2021/10/17 01:59:11;;;;;;;16.55;8.20;;;;;;;2.60;55.80;99966.25;5091664;28;20119;-75
2021/10/17 02:01:51;;;;;;;17.67;8.68;;;;;;;2.63;55.58;99961.72;5062197;28;20502;-74
2021/10/17 02:04:17;;;;;;;18.10;8.27;;;;;;;2.63;55.71;99967.00;5041546;28;20084;-74
2021/10/17 02:06:43;;;;;;;23.13;8.27;;;;;;;2.64;55.68;99963.44;5043321;28;20406;-74
2021/10/17 02:09:09;;;;;;;13.18;8.20;;;;;;;2.56;56.09;99947.03;5062169;28;20138;-75
2021/10/17 02:11:35;;;;;;;13.75;7.65;;;;;;;2.68;55.68;99958.91;5078740;28;20387;-75
2021/10/17 02:14:04;;;;;;;13.43;7.80;;;;;;;2.68;55.77;99958.91;5046681;28;20421;-76
2021/10/17 02:16:30;;;;;;;14.73;7.03;;;;;;;2.61;55.94;99952.97;5045729;28;20043;-75
2021/10/17 02:18:56;;;;;;;15.90;7.93;;;;;;;2.68;55.75;99961.53;5062079;28;20040;-76
2021/10/17 02:21:22;;;;;;;13.55;7.60;;;;;;;2.67;56.02;99957.16;5095235;28;20072;-75
2021/10/17 02:23:48;;;;;;;22.35;8.45;;;;;;;2.66;56.09;99952.81;5078529;28;20108;-74
2021/10/17 02:26:14;;;;;;;12.57;7.45;;;;;;;2.68;55.94;99957.13;5061853;28;20043;-76
2021/10/17 02:29:00;;;;;;;24.33;7.60;;;;;;;2.57;55.81;99940.81;5053114;28;20047;-74
2021/10/17 02:31:31;;;;;;;14.05;7.72;;;;;;;2.64;55.85;99946.75;5046536;28;20090;-77
2021/10/17 02:33:58;;;;;;;15.35;7.32;;;;;;;2.63;55.96;99939.72;5061830;28;20044;-77
2021/10/17 02:36:24;;;;;;;13.05;6.68;;;;;;;2.53;55.68;99917.25;5061577;28;20062;-76
2021/10/17 02:38:50;;;;;;;12.55;6.97;;;;;;;2.56;55.73;99923.28;5078170;28;20050;-77
2021/10/17 02:41:16;;;;;;;11.50;7.07;;;;;;;2.56;55.83;99931.19;5045053;28;20040;-75
2021/10/17 02:43:42;;;;;;;15.18;8.10;;;;;;;2.61;55.86;99931.88;5044970;28;20039;-76
2021/10/17 02:46:08;;;;;;;11.93;7.60;;;;;;;2.59;56.24;99944.25;5078148;28;20413;-76
2021/10/17 02:48:37;;;;;;;13.88;7.38;;;;;;;2.60;55.84;99942.50;5045595;28;20040;-76
2021/10/17 02:51:04;;;;;;;12.80;7.60;;;;;;;2.62;56.34;99938.00;5044937;28;20043;-76
2021/10/17 02:53:30;;;;;;;18.45;7.75;;;;;;;2.54;56.07;99937.44;5045204;28;20119;-75
2021/10/17 02:55:56;;;;;;;15.32;7.72;;;;;;;2.64;56.20;99955.50;5077790;28;20483;-75
2021/10/17 02:58:22;;;;;;;14.02;8.02;;;;;;;2.68;56.06;99949.19;5061147;28;20471;-75
2021/10/17 03:00:55;;;;;;;13.05;8.07;;;;;;;2.63;56.16;99932.69;5077613;28;20036;-76
2021/10/17 03:03:21;;;;;;;16.80;7.90;;;;;;;2.56;56.56;99917.16;5044805;28;20510;-76
2021/10/17 03:05:47;;;;;;;13.82;7.88;;;;;;;2.69;57.05;99950.06;5044549;28;20040;-77
2021/10/17 03:08:13;;;;;;;17.48;8.30;;;;;;;2.74;57.93;99936.66;5078156;28;20043;-78
2021/10/17 03:10:39;;;;;;;16.23;9.02;;;;;;;2.99;57.86;99948.00;5044743;28;20071;-76
2021/10/17 03:13:05;;;;;;;19.80;8.57;;;;;;;3.18;57.73;99950.78;5094572;28;20451;-75
2021/10/17 03:15:32;;;;;;;26.30;9.98;;;;;;;3.35;58.25;99952.75;5044267;28;20129;-75
2021/10/17 03:17:58;;;;;;;28.23;10.32;;;;;;;3.39;59.56;99934.06;5060174;28;20135;-77
2021/10/17 03:20:25;;;;;;;35.15;11.23;;;;;;;3.40;62.06;99932.28;5060613;28;20040;-77
2021/10/17 03:22:51;;;;;;;45.55;14.02;;;;;;;3.67;62.59;99954.06;5060694;28;20134;-75
2021/10/17 03:25:16;;;;;;;49.10;12.68;;;;;;;3.74;63.59;99934.38;5060682;28;20143;-79
2021/10/17 03:27:47;;;;;;;60.22;14.55;;;;;;;4.02;63.62;99941.09;5062041;28;20056;-78
2021/10/17 03:30:21;;;;;;;63.33;13.43;;;;;;;3.98;64.58;99929.78;5063063;28;20059;-77
2021/10/17 03:32:47;;;;;;;74.40;14.63;;;;;;;4.15;65.19;99952.88;5060562;28;20050;-76
2021/10/17 03:35:13;;;;;;;77.10;13.25;;;;;;;4.31;65.37;99945.13;5077370;28;20043;-79
2021/10/17 03:37:39;;;;;;;92.13;14.35;;;;;;;4.26;65.87;99934.75;5043495;28;20416;-77
2021/10/17 03:40:05;;;;;;;74.07;14.25;;;;;;;4.39;66.06;99946.47;5026964;28;20046;-77
2021/10/17 03:42:34;;;;;;;;;;;;;;;4.47;66.29;99947.94;5044994;28;20036;-75
2021/10/17 03:45:00;;;;;;;;;;;;;;;4.60;66.78;99944.66;5078018;28;20370;-78
2021/10/17 03:47:26;;;;;;;;;;;;;;;4.63;67.83;99955.13;5044167;28;19924;-77
2021/10/17 03:49:55;;;;;;;;;;;;;;;4.70;68.09;99955.69;5093916;28;19919;-78
2021/10/17 03:52:25;;;;;;;;;;;;;;;4.69;67.84;99950.47;5061085;28;19919;-78
2021/10/17 03:54:51;;;;;;;;;;;;;;;4.66;68.08;99948.78;5060502;28;19968;-78
2021/10/17 03:57:17;;;;;;;;;;;;;;;4.88;67.21;99943.38;5060437;28;19920;-77
2021/10/17 03:59:43;;;;;;;;;;;;;;;5.07;66.81;99941.56;5060626;28;19920;-78
2021/10/17 04:02:09;;;;;;;;;;;;;;;5.18;66.62;99945.50;5060561;28;19920;-77
2021/10/17 04:04:35;;;;;;;;;;;;;;;5.11;67.71;99937.84;5060340;28;20084;-78
2021/10/17 04:07:02;;;;;;;;;;;;;;;4.95;69.37;99933.34;5060285;28;19926;-78
2021/10/17 04:09:33;;;;;;;;;;;;;;;5.08;68.64;99938.00;5061151;28;20317;-78
2021/10/17 04:11:59;;;;;;;;;;;;;;;5.14;69.18;99938.63;5076988;28;19934;-78
2021/10/17 04:14:27;;;;;;;;;;;;;;;5.14;69.44;99933.31;5093831;28;19926;-78
2021/10/17 04:16:53;;;;;;;;;;;;;;;5.30;68.79;99947.53;5093565;28;19920;-79
2021/10/17 04:19:18;;;;;;;;;;;;;;;5.46;68.53;99943.22;5043573;28;19963;-77
2021/10/17 04:21:44;;;;;;;;;;;;;;;5.49;68.47;99940.44;5076743;28;19920;-77
2021/10/17 04:24:10;;;;;;;;;;;;;;;5.45;68.72;99938.84;5060241;28;19924;-78
2021/10/17 04:26:37;;;;;;;;;;;;;;;5.56;68.74;99936.50;5077311;28;19924;-77
2021/10/17 04:29:03;;;;;;;;;;;;;;;5.68;68.48;99932.41;5060189;28;19927;-75
2021/10/17 04:31:29;;;;;;;;;;;;;;;5.68;68.17;99931.53;5075833;28;19919;-76
2021/10/17 04:33:55;;;;;;;;;;;;;;;5.42;69.68;99927.56;5058936;28;19919;-79
2021/10/17 04:36:22;;;;;;;;;;;;;;;5.50;69.40;99920.94;5072774;28;19928;-77
2021/10/17 04:38:48;;;;;;;;;;;;;;;5.56;69.45;99920.59;5039409;28;19970;-76
2021/10/17 04:41:14;;;;;;;;;;;;;;;5.69;68.71;99926.16;5039546;28;19927;-78
2021/10/17 04:43:39;;;;;;;;;;;;;;;5.75;68.32;99927.63;5039788;28;19920;-76
2021/10/17 04:46:05;;;;;;;;;;;;;;;5.91;67.92;99922.41;5023090;28;19966;-77
2021/10/17 04:48:31;;;;;;;;;;;;;;;5.96;67.71;99913.31;5023012;28;19927;-79
2021/10/17 04:50:57;;;;;;;;;;;;;;;5.98;67.75;99911.44;5056314;28;19931;-78
2021/10/17 04:53:23;;;;;;;;;;;;;;;6.16;67.46;99922.00;5055964;28;19969;-79
2021/10/17 04:55:48;;;;;;;;;;;;;;;6.08;67.74;99911.78;5041485;28;19920;-77
2021/10/17 04:58:15;;;;;;;;;;;;;;;6.06;67.73;99919.84;5041653;28;19920;-77
2021/10/17 05:00:41;;;;;;;;;;;;;;;6.07;67.50;99921.56;5057944;28;19920;-75
2021/10/17 05:03:07;;;;;;;;;;;;;;;6.26;67.21;99931.22;5040945;28;19920;-76
2021/10/17 05:05:33;;;;;;;;;;;;;;;6.44;66.43;99932.91;5024439;28;19970;-77
2021/10/17 05:07:59;;;;;;;;;;;;;;;6.44;66.29;99930.25;5039562;28;19920;-79
2021/10/17 05:10:26;;;;;;;;;;;;;;;6.61;66.04;99931.13;5039550;28;19927;-78
2021/10/17 05:12:53;;;;;;;;;;;;;;;6.82;65.50;99929.94;5039780;28;19958;-75
2021/10/17 05:15:19;;;;;;;;;;;;;;;6.80;64.93;99926.50;5023085;28;19920;-77
2021/10/17 05:17:44;;;;;;;;;;;;;;;6.87;64.91;99922.56;5038947;28;19920;-77
2021/10/17 05:20:11;;;;;;;;;;;;;;;7.10;64.30;99925.75;5039072;28;19977;-78
2021/10/17 05:22:37;;;;;;;;;;;;;;;7.21;63.76;99920.69;5055624;28;19924;-76
2021/10/17 05:25:03;;;;;;;;;;;;;;;7.26;63.42;99915.97;5058161;28;19930;-77
2021/10/17 05:27:29;;;;;;;;;;;;;;;7.33;63.52;99909.31;5059925;28;20382;-77
2021/10/17 05:29:55;;;;;;;;;;;;;;;7.40;63.43;99916.00;5058867;28;19927;-76
2021/10/17 05:32:23;;;;;;;;;;;;;;;7.35;63.31;99918.09;5076010;28;19962;-75
2021/10/17 05:34:49;;;;;;;;;;;;;;;7.21;63.34;99912.69;5059028;28;19924;-77
2021/10/17 05:37:15;;;;;;;;;;;;;;;7.26;63.67;99908.00;5058725;28;19967;-77
2021/10/17 05:39:41;;;;;;;;;;;;;;;7.36;63.18;99910.97;5058706;28;19963;-75
2021/10/17 05:42:07;;;;;;;;;;;;;;;7.37;62.72;99910.91;5057810;28;20288;-77
2021/10/17 05:44:33;;;;;;;;;;;;;;;7.35;62.22;99899.47;5075363;28;19920;-77
2021/10/17 05:46:59;;;;;;;;;;;;;;;7.48;62.60;99903.13;5075163;28;20254;-78
2021/10/17 05:49:24;;;;;;;;;;;;;;;7.63;61.94;99906.69;5056580;28;19920;-77
2021/10/17 05:51:50;;;;;;;;;;;;;;;7.72;61.80;99899.97;5039807;28;20408;-79
2021/10/17 05:54:16;;;;;;;;;;;;;;;7.70;61.58;99896.53;5069308;28;19920;-78
2021/10/17 05:56:44;;;;;;;;;;;;;;;7.74;61.77;99887.44;5059517;28;19926;-78
2021/10/17 05:59:09;;;;;;;;;;;;;;;7.94;61.56;99897.75;5059121;28;20326;-78
2021/10/17 06:01:37;;;;;;;;;;;;;;;8.19;61.11;99898.91;5076620;28;19973;-79
2021/10/17 06:04:10;;;;;;;;;;;;;;;8.15;61.13;99895.56;5062993;28;19920;-77
2021/10/17 06:06:52;;;;;;;;;;;;;;;8.20;61.46;99905.97;5065565;28;20019;-78
2021/10/17 06:09:18;;;;;;;;;;;;;;;8.27;61.17;99902.84;5078861;28;19955;-77
2021/10/17 06:11:44;;;;;;;;;;;;;;;8.46;60.97;99901.69;5060554;28;20372;-76
2021/10/17 06:14:10;;;;;;;;;;;;;;;8.68;60.74;99895.88;5077601;28;19927;-76
2021/10/17 06:16:36;;;;;;;;;;;;;;;9.02;59.51;99894.56;5077885;28;19945;-77
2021/10/17 06:19:02;;;;;;;;;;;;;;;9.14;59.23;99879.59;5042682;28;19924;-77
2021/10/17 06:21:36;;;;;;;;;;;;;;;9.48;58.27;99876.41;5075599;28;19924;-79
2021/10/17 06:24:03;;;;;;;;;;;;;;;9.79;56.90;99869.00;5074693;28;20369;-79
2021/10/17 06:26:29;;;;;;;;;;;;;;;9.50;56.76;99881.63;5057460;28;19924;-79
2021/10/17 06:28:55;;;;;;;;;;;;;;;9.63;57.00;99879.88;5073872;28;20010;-82
2021/10/17 06:31:21;;;;;;;;;;;;;;;9.90;56.70;99882.47;5055971;28;20010;-80
2021/10/17 06:33:47;;;;;;;;;;;;;;;9.95;56.73;99879.47;5039666;28;19927;-80
2021/10/17 06:36:12;;;;;;;;;;;;;;;9.98;56.59;99869.44;5089631;28;19963;-79
2021/10/17 06:38:42;;;;;;;;;;;;;;;9.90;56.90;99869.13;5056300;28;19923;-78
2021/10/17 06:41:08;;;;;;;;;;;;;;;9.89;56.76;99867.41;5072545;28;19920;-78
2021/10/17 06:43:33;;;;;;;;;;;;;;;9.85;56.84;99868.56;5072433;28;19927;-79
2021/10/17 06:46:11;;;;;;;;;;;;;;;9.92;56.95;99853.81;5076504;28;19920;-78
2021/10/17 06:48:38;;;;;;;;;;;;;;;10.05;56.66;99858.34;5058238;28;19920;-78
2021/10/17 06:51:04;;;;;;;;;;;;;;;10.14;56.67;99847.00;5041396;28;20023;-77
2021/10/17 06:53:30;;;;;;;;;;;;;;;10.17;56.24;99852.13;5060540;28;19963;-77
2021/10/17 06:55:56;;;;;;;;;;;;;;;10.23;55.99;99841.03;5061607;28;19924;-77
2021/10/17 06:58:24;;;;;;;;;;;;;;;10.21;56.09;99837.59;5061829;28;19920;-78
2021/10/17 07:00:50;;;;;;;;;;;;;;;10.28;55.89;99838.06;5061677;28;19981;-78
2021/10/17 07:03:18;;;;;;;;;;;;;;;10.29;56.17;99840.59;5094847;28;19967;-79
2021/10/17 07:06:05;;;;;;;;;;;;;;;10.37;56.56;99843.56;5064026;28;19920;-78
2021/10/17 07:08:31;;;;;;;;;;;;;;;10.45;56.30;99838.56;5061146;28;19963;-78
2021/10/17 07:10:58;;;;;;;;;;;;;;;10.45;56.51;99843.91;5061106;28;20006;-79
2021/10/17 07:13:42;;;;;;;;;;;;;;;10.45;56.71;99838.56;5066585;28;19920;-77
2021/10/17 07:16:13;;;;;;;;;;;;;;;10.43;56.69;99835.13;5078520;28;19959;-79
2021/10/17 07:18:39;;;;;;;;;;;;;;;10.43;56.63;99839.63;5077778;28;19920;-78
2021/10/17 07:21:06;;;;;;;;;;;;;;;10.42;56.64;99832.59;5061156;28;19931;-77
2021/10/17 07:23:31;;;;;;;;;;;;;;;10.52;56.67;99835.44;5060862;28;19943;-77
2021/10/17 07:25:57;;;;;;;;;;;;;;;10.60;56.41;99830.38;5077765;28;20272;-78
2021/10/17 07:28:23;;;;;;;;;;;;;;;10.68;56.63;99826.22;5067149;28;20307;-79
2021/10/17 07:31:02;;;;;;;;;;;;;;;10.69;56.62;99827.06;5076816;28;19919;-79
2021/10/17 07:33:37;;;;;;;;;;;;;;;10.83;56.17;99823.34;5096138;28;19930;-79
2021/10/17 07:36:06;;;;;;;;;;;;;;;10.94;56.20;99813.59;5064665;28;19958;-79
2021/10/17 07:38:32;;;;;;;;;;;;;;;11.13;55.60;99814.88;5061830;28;19926;-79
2021/10/17 07:40:58;;;;;;;;;;;;;;;10.91;56.20;99816.50;5060869;28;19920;-79
2021/10/17 07:43:24;;;;;;;;;;;;;;;10.78;56.49;99815.69;5060638;28;19920;-77
2021/10/17 07:45:50;;;;;;;;;;;;;;;11.10;56.28;99815.97;5076922;28;19964;-79
2021/10/17 07:48:16;;;;;;;;;;;;;;;11.45;55.40;99822.31;5061070;28;20026;-78
2021/10/17 07:50:46;;;;;;;;;;;;;;;11.71;54.65;99812.28;5077116;28;19926;-78
2021/10/17 07:53:12;;;;;;;;;;;;;;;11.80;54.61;99809.75;5077259;28;20395;-77
2021/10/17 07:55:38;;;;;;;;;;;;;;;12.04;54.05;99807.03;5044279;28;19919;-77
2021/10/17 07:58:08;;;;;;;;;;;;;;;12.21;53.28;99805.66;5044558;28;19923;-79
2021/10/17 08:00:41;;;;;;;;;;;;;;;12.10;53.26;99805.66;5061372;28;20022;-78
2021/10/17 08:03:36;;;;;;;;;;;;;;;12.13;53.37;99811.63;5010061;28;19925;-77
2021/10/17 08:06:15;;;;;;;;;;;;;;;12.15;53.60;99815.06;5078441;28;20306;-78
2021/10/17 08:08:41;;;;;;;;;;;;;;;12.15;53.80;99808.84;5068829;28;19941;-79
2021/10/17 08:11:07;;;;;;;;;;;;;;;12.44;53.36;99813.72;5062265;28;19927;-79
2021/10/17 08:13:35;;;;;;;;;;;;;;;12.77;52.96;99810.97;5023694;28;19924;-79
2021/10/17 08:16:01;;;;;;;;;;;;;;;13.08;52.04;99808.44;5040397;28;20011;-82
2021/10/17 08:18:33;;;;;;;;;;;;;;;13.35;52.15;99808.88;5042115;28;20355;-81
2021/10/17 08:21:02;;;;;;;;;;;;;;;13.67;51.38;99804.44;5057013;28;20039;-78
2021/10/17 08:23:28;;;;;;;;;;;;;;;13.86;49.84;99804.56;5040167;28;19920;-78
2021/10/17 08:25:54;;;;;;;;;;;;;;;13.99;49.90;99798.94;5056190;28;19926;-78
2021/10/17 08:28:20;;;;;;;;;;;;;;;14.07;49.62;99794.63;5039760;28;19924;-77
2021/10/17 08:30:48;;;;;;;;;;;;;;;14.25;49.02;99800.19;5056620;28;20350;-79
2021/10/17 08:33:15;;;;;;;;;;;;;;;14.37;48.76;99802.81;5023805;28;19924;-77
2021/10/17 08:35:41;;;;;;;;;;;;;;;14.46;48.85;99805.53;5023118;28;19974;-78
2021/10/17 08:38:12;;;;;;;;;;;;;;;14.54;48.37;99803.03;5041263;28;20414;-78
2021/10/17 08:40:52;;;;;;;;;;;;;;;14.48;48.57;99800.00;5041949;28;19927;-79
2021/10/17 08:43:42;;;;;;;;;;;;;;;14.63;48.01;99798.69;5042759;28;19920;-77
2021/10/17 08:46:20;;;;;;;;;;;;;;;14.51;48.20;99786.31;5057861;28;19920;-77
2021/10/17 08:48:54;;;;;;;;;;;;;;;14.60;48.39;99793.59;5056506;28;20397;-78
2021/10/17 08:51:21;;;;;;;;;;;;;;;14.70;47.93;99789.06;5055982;28;19920;-78
2021/10/17 08:53:53;;;;;;;;;;;;;;;14.75;47.85;99786.81;5041289;28;19920;-77
2021/10/17 08:56:23;;;;;;;;;;;;;;;14.88;47.85;99788.41;5024253;28;20401;-76
2021/10/17 08:58:49;;;;;;;;;;;;;;;14.86;47.22;99785.00;5055949;28;19920;-76
2021/10/17 09:01:37;;;;;;;;;;;;;;;14.65;47.62;99791.31;5067637;28;19924;-77
2021/10/17 09:04:05;;;;;;;;;;;;;;;14.67;47.77;99781.28;5022987;28;19931;-76
2021/10/17 09:06:49;;;;;;;;;;;;;;;14.75;48.20;99780.59;5057629;28;20405;-77
2021/10/17 09:09:18;;;;;;;;;;;;;;;14.80;49.35;99773.78;5058226;28;19924;-75
2021/10/17 09:11:48;;;;;;;;;;;;;;;15.02;48.83;99777.22;5084202;28;19927;-77
2021/10/17 09:14:14;;;;;;;;;;;;;;;15.18;48.44;99785.59;5079043;28;19920;-77
2021/10/17 09:16:41;;;;;;;;;;;;;;;15.42;49.32;99781.59;5078385;28;20018;-77
2021/10/17 09:19:07;;;;;;;;;;;;;;;15.45;49.18;99778.63;5095500;28;20148;-77
2021/10/17 09:21:33;;;;;;;;;;;;;;;15.66;48.47;99773.97;5079160;28;20463;-77
2021/10/17 09:23:58;;;;;;;;;;;;;;;15.88;47.35;99772.78;5078394;28;19920;-78
2021/10/17 09:26:24;;;;;;;;;;;;;;;16.07;46.16;99769.16;5047124;28;19929;-77
2021/10/17 09:28:50;;;;;;;;;;;;;;;15.99;45.19;99766.38;5065332;28;20014;-78
2021/10/17 09:31:16;;;;;;;;;;;;;;;15.97;45.13;99768.34;5046399;28;19928;-78
2021/10/17 09:33:45;;;;;;;;;;;;;;;15.51;45.77;99761.91;5068774;28;19927;-77
2021/10/17 09:36:19;;;;;;;;;;;;;;;15.58;45.95;99762.19;5044075;28;19927;-77
2021/10/17 09:39:10;;;;;;;;;;;;;;;15.59;46.13;99756.63;5070189;28;19924;-77
2021/10/17 09:41:57;;;;;;;;;;;;;;;15.81;45.58;99752.78;5074780;28;19920;-76
2021/10/17 09:44:34;;;;;;;;;;;;;;;15.96;45.37;99737.84;5028443;28;19969;-77
2021/10/17 09:47:01;;;;;;;;;;;;;;;16.06;45.04;99740.50;5047244;28;19920;-76
2021/10/17 09:49:26;;;;;;;;;;;;;;;16.10;45.80;99741.03;5048141;28;20283;-76
2021/10/17 09:52:13;;;;;;;;;;;;;;;16.18;45.78;99731.22;5072983;28;19928;-77
2021/10/17 09:54:40;;;;;;;;;;;;;;;16.36;44.79;99738.50;5065954;28;19920;-77
2021/10/17 09:57:06;;;;;;;;;;;;;;;16.35;43.88;99734.97;5052855;28;19920;-76
2021/10/17 09:59:32;;;;;;;;;;;;;;;16.35;43.68;99724.16;5057974;28;20298;-76
2021/10/17 10:01:57;;;;;;;;;;;;;;;16.26;43.04;99725.94;5047825;28;19920;-76
2021/10/17 10:04:23;;;;;;;;;;;;;;;16.39;42.51;99724.72;5064627;28;19935;-77
2021/10/17 10:06:52;;;;;;;;;;;;;;;16.46;42.32;99725.81;5063821;28;20011;-75
2021/10/17 10:09:19;;;;;;;;;;;;;;;16.42;42.02;99730.66;5048515;28;19920;-77
2021/10/17 10:11:45;;;;;;;;;;;;;;;16.39;41.31;99724.72;5078744;28;20005;-76
2021/10/17 10:14:11;;;;;;;;;;;;;;;16.31;40.61;99716.53;5043151;28;19920;-76
2021/10/17 10:16:37;;;;;;;;;;;;;;;16.46;40.57;99720.41;5049521;28;19924;-77
2021/10/17 10:19:03;;;;;;;;;;;;;;;16.45;40.94;99719.56;5044556;28;20479;-76
2021/10/17 10:21:29;;;;;;;;;;;;;;;16.35;40.71;99713.38;5037985;28;19920;-76
2021/10/17 10:23:56;;;;;;;;;;;;;;;16.22;41.21;99716.44;5038070;28;19993;-76
2021/10/17 10:26:22;;;;;;;;;;;;;;;16.17;41.47;99707.97;5021683;28;19947;-76
2021/10/17 10:28:48;;;;;;;;;;;;;;;16.30;41.32;99709.44;5041553;28;19920;-76
2021/10/17 10:31:33;;;;;;;;;;;;;;;16.43;41.05;99709.91;5041813;28;20010;-76
2021/10/17 10:33:58;;;;;;;;;;;;;;;16.47;41.02;99706.78;5058654;28;19973;-76
2021/10/17 10:36:36;;;;;;;;;;;;;;;16.45;41.31;99705.22;5041712;28;19924;-75
2021/10/17 10:39:21;;;;;;;;;;;;;;;16.55;40.95;99708.72;5042112;28;20310;-77
2021/10/17 10:41:48;;;;;;;;;;;;;;;16.63;41.06;99702.56;5058998;28;19927;-76
2021/10/17 10:44:29;;;;;;;;;;;;;;;16.65;40.60;99693.28;5059097;28;19925;-76
2021/10/17 10:46:55;;;;;;;;;;;;;;;16.82;40.62;99696.22;5076140;28;19920;-76
2021/10/17 10:49:42;;;;;;;;;;;;;;;16.97;39.96;99702.75;5074885;28;19921;-76
2021/10/17 10:52:24;;;;;;;;;;;;;;;16.98;39.77;99694.50;5057913;28;19966;-76
2021/10/17 10:54:53;;;;;;;;;;;;;;;17.04;39.93;99698.44;5058277;28;19920;-76
2021/10/17 10:57:19;;;;;;;;;;;;;;;17.03;39.96;99696.72;5058210;28;20330;-76
2021/10/17 11:00:01;;;;;;;;;;;;;;;17.01;39.98;99687.94;5058253;28;19927;-76
2021/10/17 11:02:27;;;;;;;;;;;;;;;16.93;39.72;99687.88;5076032;28;19981;-76
2021/10/17 11:04:52;;;;;;;;;;;;;;;16.68;39.61;99689.44;5084891;28;20011;-77
2021/10/17 11:07:19;;;;;;;;;;;;;;;16.55;39.81;99692.53;5057926;28;20360;-76
2021/10/17 11:09:45;;;;;;;;;;;;;;;16.46;39.99;99688.03;5051197;28;19931;-76
2021/10/17 11:12:12;;;;;;;;;;;;;;;16.30;39.94;99693.25;5067813;28;19955;-78
2021/10/17 11:14:43;;;;;;;;;;;;;;;16.19;40.44;99695.16;5050023;28;20024;-75
2021/10/17 11:17:09;;;;;;;;;;;;;;;16.14;40.55;99692.06;5077621;28;20023;-77
2021/10/17 11:19:35;;;;;;;;;;;;;;;16.25;40.46;99699.97;5075098;28;19920;-75
2021/10/17 11:22:01;;;;;;;;;;;;;;;16.35;40.38;99693.66;5049927;28;19920;-75
2021/10/17 11:24:27;;;;;;;;;;;;;;;16.33;40.23;99688.41;5059131;28;19924;-77
2021/10/17 11:27:12;;;;;;;;;;;;;;;16.34;40.70;99694.66;5051565;28;19963;-77
2021/10/17 11:29:39;;;;;;;;;;;;;;;16.34;40.13;99683.88;5087509;28;19927;-78
2021/10/17 11:32:06;;;;;;;;;;;;;;;16.33;39.71;99684.88;5097653;28;19942;-77
2021/10/17 11:34:32;;;;;;;;;;;;;;;16.31;39.93;99685.00;5064316;28;19919;-79
2021/10/17 11:37:16;;;;;;;;;;;;;;;16.23;39.72;99677.66;5080874;28;19926;-79
2021/10/17 11:39:55;;;;;;;;;;;;;;;16.21;39.42;99687.78;5080320;28;19919;-78
2021/10/17 11:42:24;;;;;;;;;;;;;;;16.21;39.63;99681.50;5081164;28;19927;-76
2021/10/17 11:44:50;;;;;;;;;;;;;;;16.08;39.63;99679.16;5080353;28;19927;-80
2021/10/17 11:47:17;;;;;;;;;;;;;;;16.07;39.48;99672.09;5063633;28;20018;-78
2021/10/17 11:49:43;;;;;;;;;;;;;;;16.05;39.93;99684.84;5080320;28;19919;-78
2021/10/17 11:52:12;;;;;;;;;;;;;;;16.05;39.54;99674.06;5080211;28;19926;-76
2021/10/17 11:54:42;;;;;;;;;;;;;;;15.96;39.98;99675.81;5080276;28;19919;-79
2021/10/17 11:57:07;;;;;;;;;;;;;;;15.90;40.20;99686.34;5097010;28;20006;-75
2021/10/17 11:59:33;;;;;;;;;;;;;;;15.77;40.79;99674.06;5080446;28;19966;-77
2021/10/17 12:01:59;;;;;;;;;;;;;;;15.74;41.02;99668.13;5063656;28;20255;-77
2021/10/17 12:04:41;;;;;;;;;;;;;;;15.73;41.33;99659.19;5080123;28;19920;-81
2021/10/17 12:07:06;;;;;;;;;;;;;;;15.78;41.43;99656.88;5063913;28;19920;-78
2021/10/17 12:09:34;;;;;;;;;;;;;;;15.76;41.67;99666.97;5063679;28;19920;-79
2021/10/17 12:11:59;;;;;;;;;;;;;;;15.71;41.86;99666.56;5080082;28;19919;-78
2021/10/17 12:14:25;;;;;;;;;;;;;;;15.67;42.02;99659.78;5080366;28;19927;-78
2021/10/17 12:16:55;;;;;;;;;;;;;;;15.67;42.33;99662.47;5063524;28;20382;-78
2021/10/17 12:19:27;;;;;;;;;;;;;;;15.66;42.12;99655.38;5063241;28;19920;-77
2021/10/17 12:21:53;;;;;;;;;;;;;;;15.64;42.42;99657.31;5097276;28;20056;-77
2021/10/17 12:24:24;;;;;;;;;;;;;;;15.63;42.43;99642.16;5080835;28;20378;-78
2021/10/17 12:26:58;;;;;;;;;;;;;;;15.63;42.52;99642.16;5080104;28;19927;-78
2021/10/17 12:29:28;;;;;;;;;;;;;;;15.59;42.84;99648.84;5063725;28;19920;-78
2021/10/17 12:31:56;;;;;;;;;;;;;;;15.51;42.72;99644.19;5079313;28;20366;-79